Time;durP1;ratioP1;P1;durP2;ratioP2;P2;SDS_P1;SDS_P2;PMS_P1;PMS_P2;Temp;Humidity;BMP_temperature;BMP_pressure;BME280_temperature;BME280_humidity;BME280_pressure;Samples;Min_cycle;Max_cycle;Signal;HPM_P1;HPM_P2
2022/08/18 00:06:39;;;;;;;12.00;8.70;;;;;;;22.57;98.14;99602.16;31535688;28;20060;-72
2022/08/18 00:21:41;;;;;;;10.13;5.83;;;;;;;22.54;99.84;99610.72;31559475;28;20058;-72
2022/08/18 00:36:43;;;;;;;10.20;6.50;;;;;;;22.37;100.00;99608.81;31549279;28;20313;-71
2022/08/18 00:51:49;;;;;;;8.93;6.03;;;;;;;22.29;100.00;99607.09;31539778;28;20091;-70
2022/08/18 01:06:56;;;;;;;10.20;6.45;;;;;;;22.18;100.00;99613.47;31536762;28;20040;-71
2022/08/18 01:22:06;;;;;;;10.15;7.03;;;;;;;22.14;100.00;99601.16;31528358;28;20068;-70
2022/08/18 01:37:08;;;;;;;9.88;6.75;;;;;;;22.10;100.00;99596.66;31522985;28;20053;-71
2022/08/18 01:52:19;;;;;;;12.63;8.63;;;;;;;21.95;100.00;99587.91;31546922;28;20473;-72
2022/08/18 02:07:21;;;;;;;10.82;7.10;;;;;;;21.90;100.00;99585.91;31578746;28;20520;-70
2022/08/18 02:22:33;;;;;;;10.23;7.65;;;;;;;21.92;100.00;99597.19;31564181;28;20040;-72
2022/08/18 02:37:35;;;;;;;10.47;7.23;;;;;;;21.92;100.00;99602.72;31559508;28;20056;-71
2022/08/18 02:52:40;;;;;;;11.13;7.57;;;;;;;21.85;100.00;99602.50;31542024;28;20059;-71
2022/08/18 03:07:42;;;;;;;12.27;8.83;;;;;;;22.02;100.00;99612.25;31561776;28;20052;-71
2022/08/18 03:22:44;;;;;;;18.27;8.43;;;;;;;22.02;100.00;99605.97;31574708;28;20052;-71
2022/08/18 03:37:46;;;;;;;15.00;8.20;;;;;;;22.20;100.00;99616.47;31541928;28;20067;-73
2022/08/18 03:52:48;;;;;;;11.13;8.07;;;;;;;22.68;100.00;99626.97;31468405;28;20086;-72
2022/08/18 04:07:50;;;;;;;12.40;9.00;;;;;;;23.14;100.00;99633.75;31498147;28;20055;-72
2022/08/18 04:22:53;;;;;;;11.23;8.50;;;;;;;23.34;100.00;99647.16;31570419;28;20048;-72
2022/08/18 04:37:55;;;;;;;;;;;;;;;23.75;100.00;99635.19;31565888;28;20054;-72
2022/08/18 05:08:17;;;;;;;13.40;8.05;;;;;;;24.80;97.17;99635.84;31537465;28;20519;-71
2022/08/18 05:23:20;;;;;;;11.70;7.93;;;;;;;25.33;94.28;99646.41;31534784;28;20047;-71
2022/08/18 05:38:50;;;;;;;11.15;6.88;;;;;;;25.88;91.02;99632.78;31533850;28;20309;-73
2022/08/18 06:09:27;;;;;;;11.10;7.33;;;;;;;27.04;83.02;99651.03;31546532;28;20056;-73
2022/08/18 06:25:06;;;;;;;11.20;8.00;;;;;;;27.41;82.52;99647.81;31567395;28;20052;-72
2022/08/18 06:40:09;;;;;;;9.27;7.20;;;;;;;28.02;79.02;99648.25;31548725;28;20047;-72
2022/08/18 06:55:17;;;;;;;11.93;7.72;;;;;;;28.04;79.55;99644.91;31551816;28;20058;-72
2022/08/18 07:10:18;;;;;;;11.07;9.02;;;;;;;28.66;77.93;99647.38;31544710;28;20048;-82
2022/08/18 07:25:43;;;;;;;12.30;8.65;;;;;;;29.69;70.94;99633.09;31545129;28;20056;-72
2022/08/18 07:41:14;;;;;;;14.55;9.18;;;;;;;29.42;70.93;99613.94;31540335;28;20055;-78
2022/08/18 07:56:36;;;;;;;13.13;8.93;;;;;;;28.44;76.02;99620.13;31540766;28;20036;-72
2022/08/18 08:12:16;;;;;;;13.15;10.00;;;;;;;28.39;78.71;99612.69;31552839;28;20040;-88
2022/08/18 08:27:43;;;;;;;13.38;10.05;;;;;;;28.11;81.67;99605.84;31527360;27;20065;-87
2022/08/18 08:42:56;;;;;;;10.23;7.63;;;;;;;27.60;77.63;99605.06;31527001;28;20048;-77
2022/08/18 08:58:25;;;;;;;8.98;5.97;;;;;;;26.43;76.60;99603.09;31527275;28;20448;-83
2022/08/18 09:35:47;;;;;;;9.93;6.82;;;;;;;26.61;78.12;99590.28;31331830;28;20391;-74
2022/08/18 09:51:26;;;;;;;8.47;4.93;;;;;;;27.44;72.54;99607.69;31338696;28;20116;-77
2022/08/18 10:06:28;;;;;;;7.20;4.72;;;;;;;29.55;66.57;99598.25;31310677;28;20057;-82
2022/08/18 10:22:01;;;;;;;8.50;5.68;;;;;;;32.28;56.51;99606.75;31353588;28;20059;-81
2022/08/18 10:37:17;;;;;;;11.35;6.70;;;;;;;32.29;55.91;99601.88;31217989;28;20428;-74
2022/08/18 10:52:50;;;;;;;11.32;7.07;;;;;;;29.82;66.48;99602.09;31245879;28;20061;-75
2022/08/18 11:08:16;;;;;;;9.90;7.68;;;;;;;28.72;71.53;99543.88;31184826;28;20045;-77
2022/08/18 11:23:20;;;;;;;13.40;9.25;;;;;;;28.67;74.82;99547.59;31167473;28;20061;-76
2022/08/18 11:38:23;;;;;;;10.40;8.35;;;;;;;28.56;76.14;99557.09;31189863;28;20089;-75
2022/08/18 11:53:48;;;;;;;13.23;7.82;;;;;;;28.46;72.30;99572.88;31138402;28;20171;-80
2022/08/18 12:09:05;;;;;;;20.25;7.53;;;;;;;28.77;70.16;99562.50;31168553;28;20061;-74
2022/08/18 12:24:19;;;;;;;12.18;8.75;;;;;;;28.99;69.12;99550.63;31184506;28;20049;-79
2022/08/18 12:39:30;;;;;;;12.38;8.52;;;;;;;29.04;68.52;99546.16;31181075;28;20054;-82
2022/08/18 12:54:34;;;;;;;37.30;20.10;;;;;;;29.01;65.53;99570.34;31182303;28;20104;-78
2022/08/18 13:09:42;;;;;;;11.15;6.70;;;;;;;28.91;65.35;99546.31;31188089;28;20406;-80
2022/08/18 13:25:00;;;;;;;10.13;7.45;;;;;;;29.02;64.24;99538.31;31177806;28;20136;-81
2022/08/18 13:40:05;;;;;;;9.40;7.20;;;;;;;28.87;63.58;99548.75;31156639;28;20081;-75
2022/08/18 13:55:15;;;;;;;9.57;5.93;;;;;;;28.63;61.85;99544.41;31186166;28;20517;-75
2022/08/18 14:10:18;;;;;;;11.40;7.47;;;;;;;28.29;62.92;99569.88;31223823;28;20513;-74
2022/08/18 14:40:43;;;;;;;8.47;5.97;;;;;;;28.32;61.68;99580.69;31186305;28;20085;-75
2022/08/18 14:55:50;;;;;;;11.52;6.28;;;;;;;28.19;61.50;99589.91;31190594;28;20053;-75
2022/08/18 15:10:53;;;;;;;6.53;5.25;;;;;;;27.98;62.24;99602.47;31207498;28;20137;-73
2022/08/18 15:25:56;;;;;;;7.82;5.25;;;;;;;27.70;62.88;99609.56;31214068;28;20049;-76
2022/08/18 15:41:02;;;;;;;8.07;4.47;;;;;;;27.34;64.20;99615.09;31196006;28;20079;-75
2022/08/18 15:56:20;;;;;;;6.75;5.13;;;;;;;26.97;65.95;99596.75;31187552;28;20145;-75
2022/08/18 16:11:24;;;;;;;10.68;6.45;;;;;;;26.62;69.81;99606.44;31171508;28;20406;-76
2022/08/18 16:26:30;;;;;;;11.73;7.70;;;;;;;26.37;73.94;99610.81;31217197;28;20054;-77
2022/08/18 16:41:32;;;;;;;17.25;9.88;;;;;;;26.14;79.29;99605.69;31203475;28;20049;-75
2022/08/18 16:56:35;;;;;;;13.05;8.50;;;;;;;25.93;80.62;99621.56;31184295;28;20053;-79
2022/08/18 17:11:38;;;;;;;11.07;8.50;;;;;;;25.79;80.14;99620.06;31169758;28;20591;-79
2022/08/18 17:26:59;;;;;;;22.98;13.50;;;;;;;25.44;83.58;99613.63;31193744;28;20081;-79
2022/08/18 17:57:31;;;;;;;14.43;8.80;;;;;;;24.92;86.25;99602.38;31210075;28;20053;-74
2022/08/18 18:12:34;;;;;;;13.70;8.93;;;;;;;24.80;86.92;99591.44;31207248;28;20426;-75
2022/08/18 18:27:43;;;;;;;14.48;9.45;;;;;;;24.65;89.50;99607.81;31181478;28;20054;-75
2022/08/18 18:42:49;;;;;;;;;;;;;;;24.51;91.31;99609.06;31160741;28;20124;-75
2022/08/18 18:57:51;;;;;;;12.98;9.88;;;;;;;24.33;92.02;99584.84;31164614;28;19921;-77
2022/08/18 19:13:08;;;;;;;46.75;33.28;;;;;;;24.28;93.55;99597.53;31218152;28;20060;-83
2022/08/18 19:28:18;;;;;;;13.93;9.95;;;;;;;24.12;94.50;99567.94;31194286;28;22178;-76
2022/08/18 19:43:39;;;;;;;12.52;9.30;;;;;;;24.07;94.43;99600.03;31160652;28;20484;-74
2022/08/18 19:59:26;;;;;;;15.55;9.55;;;;;;;23.94;95.45;99585.31;31174677;28;20411;-74
2022/08/18 20:14:38;;;;;;;12.80;9.65;;;;;;;23.89;94.50;99566.72;31198915;28;20051;-75
2022/08/18 20:29:44;;;;;;;13.15;9.15;;;;;;;23.95;94.76;99593.13;31148849;28;20062;-75
2022/08/18 20:44:46;;;;;;;23.52;15.68;;;;;;;23.98;94.99;99600.41;31148654;28;20056;-74
2022/08/18 21:00:03;;;;;;;14.80;9.80;;;;;;;23.63;96.95;99601.28;31151870;28;20086;-75
2022/08/18 21:15:11;;;;;;;28.02;17.65;;;;;;;23.50;97.07;99600.41;31148266;28;20049;-75
2022/08/18 21:30:20;;;;;;;15.05;9.50;;;;;;;23.35;99.46;99609.13;31159851;28;20050;-73
2022/08/18 21:45:22;;;;;;;14.13;10.27;;;;;;;23.24;100.00;99585.06;31165397;28;20403;-75
2022/08/18 22:00:28;;;;;;;16.90;10.57;;;;;;;23.17;100.00;99588.38;31168201;28;20046;-75
2022/08/18 22:15:30;;;;;;;19.13;10.20;;;;;;;23.16;100.00;99575.81;31154915;28;20050;-73
2022/08/18 22:30:32;;;;;;;13.40;9.87;;;;;;;23.21;100.00;99594.38;31172385;28;20108;-75
2022/08/18 22:45:34;;;;;;;15.10;10.20;;;;;;;23.10;100.00;99572.34;31160590;28;20060;-75
2022/08/18 23:00:36;;;;;;;18.83;11.20;;;;;;;22.95;100.00;99566.44;31169649;28;20503;-74
2022/08/18 23:15:46;;;;;;;15.32;11.18;;;;;;;22.76;100.00;99582.91;31177908;28;20053;-75
2022/08/18 23:30:50;;;;;;;14.57;10.40;;;;;;;22.54;100.00;99575.53;31146164;28;20129;-74
2022/08/18 23:45:52;;;;;;;16.50;10.75;;;;;;;22.19;100.00;99570.72;31174089;28;20053;-76
